Time;durP1;ratioP1;P1;durP2;ratioP2;P2;SDS_P1;SDS_P2;PMS_P1;PMS_P2;Temp;Humidity;BMP_temperature;BMP_pressure;BME280_temperature;BME280_humidity;BME280_pressure;Samples;Min_cycle;Max_cycle;Signal;HPM_P1;HPM_P2
2021/01/15 00:00:48;;;;;;;18.63;8.20;;;;;;;-0.42;100.00;102095.16;5202598;28;20028;-68
2021/01/15 00:03:19;;;;;;;20.55;8.13;;;;;;;-0.45;100.00;102105.81;5205232;28;20036;-68
2021/01/15 00:05:49;;;;;;;17.90;8.32;;;;;;;-0.46;100.00;102107.59;5205964;28;20442;-68
2021/01/15 00:08:20;;;;;;;23.85;9.25;;;;;;;-0.50;100.00;102113.06;5204672;28;20110;-68
2021/01/15 00:10:50;;;;;;;18.52;8.55;;;;;;;-0.56;100.00;102115.03;5205577;28;20025;-69
2021/01/15 00:13:20;;;;;;;19.13;8.50;;;;;;;-0.59;100.00;102117.81;5204549;28;20032;-68
2021/01/15 00:15:51;;;;;;;25.55;9.52;;;;;;;-0.60;100.00;102116.13;5205619;28;20025;-68
2021/01/15 00:18:22;;;;;;;21.67;8.40;;;;;;;-0.57;100.00;102123.03;5204582;28;20504;-68
2021/01/15 00:20:52;;;;;;;18.92;8.43;;;;;;;-0.56;100.00;102135.28;5205204;28;20025;-69
2021/01/15 00:23:22;;;;;;;25.10;9.10;;;;;;;-0.60;100.00;102138.97;5205307;28;20036;-69
2021/01/15 00:25:53;;;;;;;18.05;8.02;;;;;;;-0.58;100.00;102134.50;5204809;28;20029;-68
2021/01/15 00:28:23;;;;;;;23.17;8.45;;;;;;;-0.59;100.00;102136.28;5199846;28;20039;-68
2021/01/15 00:30:54;;;;;;;26.95;9.90;;;;;;;-0.63;100.00;102142.59;5205285;28;20025;-68
2021/01/15 00:33:24;;;;;;;23.10;9.27;;;;;;;-0.63;100.00;102150.50;5204312;28;20021;-68
2021/01/15 00:35:54;;;;;;;25.88;8.85;;;;;;;-0.64;100.00;102148.78;5208628;28;20032;-68
2021/01/15 00:38:25;;;;;;;19.20;8.65;;;;;;;-0.63;100.00;102152.28;5204082;28;20021;-67
2021/01/15 00:41:03;;;;;;;22.40;7.75;;;;;;;-0.63;100.00;102154.91;5205145;28;20117;-67
2021/01/15 00:43:35;;;;;;;17.02;8.32;;;;;;;-0.65;100.00;102156.75;5204186;28;20116;-67
2021/01/15 00:46:07;;;;;;;19.30;7.47;;;;;;;-0.63;100.00;102154.91;5205631;28;20021;-68
2021/01/15 00:48:39;;;;;;;17.90;8.38;;;;;;;-0.62;100.00;102162.75;5203511;28;20037;-67
2021/01/15 00:51:09;;;;;;;30.95;11.30;;;;;;;-0.63;100.00;102171.56;5204845;28;20056;-67
2021/01/15 00:53:40;;;;;;;26.95;9.73;;;;;;;-0.67;100.00;102166.50;5204459;28;20075;-67
2021/01/15 00:56:10;;;;;;;20.05;8.07;;;;;;;-0.67;100.00;102171.75;5204483;28;20036;-67
2021/01/15 00:58:41;;;;;;;18.40;9.05;;;;;;;-0.67;100.00;102174.41;5204132;28;20406;-67
2021/01/15 01:01:13;;;;;;;18.88;8.50;;;;;;;-0.65;100.00;102175.22;5205292;28;20036;-67
2021/01/15 01:03:44;;;;;;;23.38;8.43;;;;;;;-0.69;100.00;102179.75;5203858;28;20022;-68
2021/01/15 01:06:17;;;;;;;20.83;9.00;;;;;;;-0.70;100.00;102199.13;5204163;28;20029;-67
2021/01/15 01:08:48;;;;;;;18.15;7.65;;;;;;;-0.67;100.00;102204.25;5202621;28;20021;-67
2021/01/15 01:11:21;;;;;;;19.25;8.45;;;;;;;-0.65;100.00;102209.47;5204490;28;20522;-67
2021/01/15 01:13:54;;;;;;;16.88;8.90;;;;;;;-0.67;100.00;102216.56;5203952;28;20057;-68
2021/01/15 01:16:25;;;;;;;24.40;8.45;;;;;;;-0.69;100.00;102221.06;5203756;28;20029;-67
2021/01/15 01:18:56;;;;;;;21.85;8.45;;;;;;;-0.71;100.00;102221.09;5228439;28;20036;-68
2021/01/15 01:21:26;;;;;;;22.77;9.23;;;;;;;-0.73;100.00;102222.94;5201353;28;20026;-67
2021/01/15 01:23:57;;;;;;;17.77;8.50;;;;;;;-0.75;100.00;102224.78;5204166;28;20107;-67
2021/01/15 01:26:27;;;;;;;17.58;7.80;;;;;;;-0.77;100.00;102231.03;5203057;28;20032;-67
2021/01/15 01:28:57;;;;;;;20.13;7.72;;;;;;;-0.79;100.00;102242.50;5197253;28;20445;-68
2021/01/15 01:31:28;;;;;;;19.17;8.32;;;;;;;-0.76;100.00;102248.53;5205462;28;20017;-67
2021/01/15 01:33:58;;;;;;;19.95;8.48;;;;;;;-0.79;100.00;102237.22;5203550;28;20033;-68
2021/01/15 01:36:29;;;;;;;21.42;8.07;;;;;;;-0.79;100.00;102253.03;5203928;28;20018;-67
2021/01/15 01:38:59;;;;;;;23.25;9.13;;;;;;;-0.81;100.00;102256.63;5204223;28;20025;-67
2021/01/15 01:41:30;;;;;;;19.75;8.95;;;;;;;-0.82;100.00;102247.00;5204233;28;20025;-68
2021/01/15 01:44:00;;;;;;;22.20;9.57;;;;;;;-0.82;100.00;102254.91;5203698;28;20107;-67
2021/01/15 01:46:31;;;;;;;23.52;8.90;;;;;;;-0.82;100.00;102258.41;5203667;28;20032;-67
2021/01/15 01:49:02;;;;;;;19.67;8.35;;;;;;;-0.84;100.00;102273.44;5203432;28;20312;-67
2021/01/15 01:51:32;;;;;;;20.20;9.00;;;;;;;-0.85;100.00;102278.75;5204149;28;20079;-67
2021/01/15 01:54:03;;;;;;;28.52;10.18;;;;;;;-0.89;100.00;102282.44;5203588;28;20037;-67
2021/01/15 01:56:34;;;;;;;26.05;10.10;;;;;;;-0.88;100.00;102276.22;5235626;28;20284;-67
2021/01/15 01:59:06;;;;;;;25.90;10.05;;;;;;;-0.88;100.00;102292.91;5203367;28;20896;-67
2021/01/15 02:01:37;;;;;;;28.95;11.40;;;;;;;-0.89;100.00;102298.22;5203083;28;20021;-67
2021/01/15 02:04:07;;;;;;;26.77;11.30;;;;;;;-0.90;100.00;102300.00;5203434;28;20395;-67
2021/01/15 02:06:40;;;;;;;31.02;11.55;;;;;;;-0.92;100.00;102303.59;5203509;28;20064;-70
2021/01/15 02:09:11;;;;;;;29.40;12.25;;;;;;;-0.94;100.00;102303.66;5203630;28;20035;-67
2021/01/15 02:11:57;;;;;;;26.92;11.32;;;;;;;-0.94;100.00;102308.09;5204032;28;20022;-67
2021/01/15 02:14:43;;;;;;;31.83;12.35;;;;;;;-0.96;100.00;102308.13;5203806;28;20408;-68
2021/01/15 02:17:17;;;;;;;29.90;12.35;;;;;;;-0.97;100.00;102309.03;5204042;28;20049;-67
2021/01/15 02:19:53;;;;;;;35.95;12.43;;;;;;;-1.00;100.00;102317.06;5203874;28;20079;-67
2021/01/15 02:22:40;;;;;;;37.50;13.02;;;;;;;-1.02;100.00;102326.78;5203691;28;20107;-67
2021/01/15 02:25:50;;;;;;;37.58;13.85;;;;;;;-1.05;100.00;102317.25;5203295;28;20103;-67
2021/01/15 02:28:54;;;;;;;36.28;13.40;;;;;;;-1.05;100.00;102327.78;5192010;28;20498;-68
2021/01/15 02:31:44;;;;;;;36.05;15.43;;;;;;;-1.07;100.00;102328.72;5203449;28;20078;-67
2021/01/15 02:34:52;;;;;;;34.30;14.20;;;;;;;-1.10;100.00;102336.75;5203964;28;20434;-67
2021/01/15 02:37:41;;;;;;;35.53;13.95;;;;;;;-1.14;100.00;102330.72;5208144;28;20024;-67
2021/01/15 02:40:22;;;;;;;37.03;13.93;;;;;;;-1.17;100.00;102319.44;5207528;28;20068;-67
2021/01/15 02:42:55;;;;;;;39.47;13.95;;;;;;;-1.18;100.00;102328.25;5191087;28;20033;-67
2021/01/15 02:45:26;;;;;;;42.75;13.48;;;;;;;-1.20;100.00;102323.06;5202857;28;20028;-67
2021/01/15 02:48:04;;;;;;;37.30;14.18;;;;;;;-1.21;100.00;102331.84;5203205;28;20025;-68
2021/01/15 02:50:35;;;;;;;38.38;14.45;;;;;;;-1.21;100.00;102339.75;5203467;28;20528;-67
2021/01/15 02:53:06;;;;;;;36.85;14.45;;;;;;;-1.20;100.00;102341.50;5203572;28;20029;-67
2021/01/15 02:55:37;;;;;;;32.70;13.88;;;;;;;-1.22;100.00;102342.44;5193087;28;20098;-67
2021/01/15 02:58:08;;;;;;;42.38;13.90;;;;;;;-1.23;100.00;102354.75;5202473;28;20025;-67
2021/01/15 03:00:40;;;;;;;41.20;14.07;;;;;;;-1.24;100.00;102354.81;5202898;28;20110;-67
2021/01/15 03:03:34;;;;;;;36.70;14.55;;;;;;;-1.26;100.00;102354.84;5203073;28;20429;-67
2021/01/15 03:06:12;;;;;;;37.58;13.35;;;;;;;-1.26;100.00;102359.25;5202681;28;20076;-67
2021/01/15 03:08:46;;;;;;;37.80;13.80;;;;;;;-1.25;100.00;102366.28;5202692;28;20025;-67
2021/01/15 03:11:18;;;;;;;35.95;13.93;;;;;;;-1.28;100.00;102364.59;5203159;28;20536;-67
2021/01/15 03:13:54;;;;;;;41.15;14.35;;;;;;;-1.31;100.00;102370.84;5203297;28;20032;-67
2021/01/15 03:16:27;;;;;;;32.95;13.07;;;;;;;-1.28;100.00;102371.63;5201926;28;20160;-67
2021/01/15 03:18:59;;;;;;;33.33;12.40;;;;;;;-1.28;100.00;102376.91;5203461;28;20033;-67
2021/01/15 03:21:30;;;;;;;33.88;13.23;;;;;;;-1.31;100.00;102381.38;5203171;28;20493;-67
2021/01/15 03:24:02;;;;;;;41.20;12.80;;;;;;;-1.32;100.00;102382.25;5200911;28;20044;-67
2021/01/15 03:26:33;;;;;;;31.23;13.00;;;;;;;-1.33;100.00;102384.94;5199415;28;20389;-67
2021/01/15 03:29:03;;;;;;;30.85;12.32;;;;;;;-1.33;100.00;102390.22;5215950;28;20033;-67
2021/01/15 03:31:34;;;;;;;33.95;12.98;;;;;;;-1.35;100.00;102392.91;5190138;28;20026;-68
2021/01/15 03:34:04;;;;;;;35.80;12.45;;;;;;;-1.36;100.00;102395.56;5201615;28;20053;-67
2021/01/15 03:36:35;;;;;;;37.28;13.63;;;;;;;-1.38;100.00;102400.03;5209273;28;20566;-67
2021/01/15 03:39:05;;;;;;;29.75;11.80;;;;;;;-1.39;100.00;102406.22;5209414;28;20021;-67
2021/01/15 03:41:36;;;;;;;28.13;10.32;;;;;;;-1.37;100.00;102396.50;5209084;28;20026;-68
2021/01/15 03:44:06;;;;;;;33.40;11.75;;;;;;;-1.38;100.00;102407.94;5209275;28;20021;-67
2021/01/15 03:46:37;;;;;;;28.10;11.60;;;;;;;-1.39;100.00;102406.22;5208291;28;20526;-67
2021/01/15 03:49:07;;;;;;;35.20;12.57;;;;;;;-1.37;100.00;102407.88;5208995;28;20043;-68
2021/01/15 03:51:38;;;;;;;31.10;12.05;;;;;;;-1.38;100.00;102414.06;5209302;28;20486;-67
2021/01/15 03:54:08;;;;;;;30.95;11.77;;;;;;;-1.38;100.00;102415.84;5220138;28;20026;-68
2021/01/15 03:56:39;;;;;;;32.97;12.52;;;;;;;-1.34;100.00;102425.38;5200898;28;20431;-68
2021/01/15 03:59:09;;;;;;;31.88;11.38;;;;;;;-1.34;100.00;102425.38;5209190;28;20066;-67
2021/01/15 04:01:41;;;;;;;26.65;10.70;;;;;;;-1.34;100.00;102439.38;5208717;28;20032;-67
2021/01/15 04:04:11;;;;;;;30.63;11.45;;;;;;;-1.33;100.00;102427.06;5209188;28;20025;-67
2021/01/15 04:06:41;;;;;;;35.03;12.38;;;;;;;-1.32;100.00;102434.91;5208125;28;20083;-67
2021/01/15 04:09:12;;;;;;;28.63;11.75;;;;;;;-1.34;100.00;102435.91;5209270;28;20037;-67
2021/01/15 04:11:42;;;;;;;26.42;11.32;;;;;;;-1.35;100.00;102439.44;5208931;28;20048;-67
2021/01/15 04:14:13;;;;;;;31.98;11.77;;;;;;;-1.36;100.00;102446.47;5209388;28;20057;-68
2021/01/15 04:16:43;;;;;;;32.58;11.75;;;;;;;-1.36;100.00;102446.47;5194954;28;20108;-67
2021/01/15 04:19:14;;;;;;;27.92;10.63;;;;;;;-1.35;100.00;102439.44;5209130;28;20057;-67
2021/01/15 04:21:44;;;;;;;30.42;11.43;;;;;;;-1.33;100.00;102453.41;5208528;28;20102;-67
2021/01/15 04:24:15;;;;;;;26.45;10.57;;;;;;;-1.32;100.00;102455.13;5209192;28;20570;-67
2021/01/15 04:26:45;;;;;;;24.48;9.73;;;;;;;-1.30;100.00;102458.59;5202041;28;20040;-67
2021/01/15 04:29:15;;;;;;;24.38;10.05;;;;;;;-1.25;100.00;102461.06;5203147;28;20116;-67
2021/01/15 04:31:46;;;;;;;28.08;10.50;;;;;;;-1.22;100.00;102463.59;5208040;28;20147;-68
2021/01/15 04:34:17;;;;;;;31.02;11.45;;;;;;;-1.25;100.00;102459.28;5208400;28;20025;-67
2021/01/15 04:36:47;;;;;;;31.48;10.93;;;;;;;-1.20;100.00;102459.16;5211167;28;20125;-67
2021/01/15 04:39:19;;;;;;;28.35;10.77;;;;;;;-1.14;100.00;102466.84;5210821;28;20114;-67
2021/01/15 04:41:52;;;;;;;28.33;10.65;;;;;;;-1.13;100.00;102472.03;5209045;28;20071;-68
2021/01/15 04:44:23;;;;;;;26.08;10.57;;;;;;;-1.08;100.00;102471.88;5208100;28;20025;-67
2021/01/15 04:46:56;;;;;;;22.48;9.80;;;;;;;-1.07;100.00;102474.47;5206095;28;20441;-67
2021/01/15 04:49:29;;;;;;;30.00;10.65;;;;;;;-1.02;100.00;102476.09;5205470;28;20393;-67
2021/01/15 04:52:02;;;;;;;24.38;9.85;;;;;;;-1.00;100.00;102477.78;5205603;28;20025;-67
2021/01/15 04:54:37;;;;;;;28.38;10.55;;;;;;;-0.98;100.00;102486.47;5204630;28;20022;-68
2021/01/15 04:57:10;;;;;;;22.55;10.20;;;;;;;-0.93;100.00;102495.06;5205008;28;20021;-67
2021/01/15 04:59:45;;;;;;;23.45;10.05;;;;;;;-0.90;100.00;102494.97;5204124;28;20017;-68
2021/01/15 05:02:17;;;;;;;;;;;;;;;-0.88;100.00;102492.28;5205880;28;20035;-68
2021/01/15 05:04:47;;;;;;;26.48;9.52;;;;;;;-0.87;100.00;102499.28;5204715;28;19934;-67
2021/01/15 05:07:23;;;;;;;25.38;9.95;;;;;;;-0.85;100.00;102498.31;5205213;28;20052;-67
2021/01/15 05:09:56;;;;;;;26.90;10.85;;;;;;;-0.83;100.00;102490.34;5204610;28;20026;-68
2021/01/15 05:12:29;;;;;;;40.05;11.20;;;;;;;-0.83;100.00;102503.53;5205333;28;20025;-67
2021/01/15 05:14:59;;;;;;;25.63;9.57;;;;;;;-0.82;100.00;102505.25;5204531;28;20117;-67
2021/01/15 05:17:30;;;;;;;28.40;10.80;;;;;;;-0.83;100.00;102508.81;5204613;28;20119;-67
2021/01/15 05:20:02;;;;;;;25.90;10.85;;;;;;;-0.81;100.00;102518.34;5204619;28;20105;-67
2021/01/15 05:22:33;;;;;;;25.23;10.32;;;;;;;-0.81;100.00;102522.78;5204962;28;20478;-67
2021/01/15 05:25:04;;;;;;;28.67;9.60;;;;;;;-0.79;100.00;102519.19;5204326;28;20032;-67
2021/01/15 05:27:40;;;;;;;25.48;9.77;;;;;;;-0.80;100.00;102525.38;5203753;28;20030;-67
2021/01/15 05:30:11;;;;;;;26.40;10.50;;;;;;;-0.76;100.00;102522.63;5204717;28;20045;-67
2021/01/15 05:32:42;;;;;;;23.88;10.23;;;;;;;-0.79;100.00;102529.72;5205101;28;20065;-67
2021/01/15 05:35:13;;;;;;;30.77;11.55;;;;;;;-0.80;100.00;102528.00;5204338;28;20064;-67
2021/01/15 05:37:56;;;;;;;24.90;9.55;;;;;;;-0.79;100.00;102529.72;5204197;28;20109;-67
2021/01/15 05:40:37;;;;;;;21.80;10.05;;;;;;;-0.82;100.00;102529.81;5203825;28;20032;-68
2021/01/15 05:43:25;;;;;;;27.35;11.35;;;;;;;-0.79;100.00;102540.28;5204961;28;20022;-67
2021/01/15 05:46:18;;;;;;;26.02;10.27;;;;;;;-0.78;100.00;102541.13;5203980;28;20032;-67
2021/01/15 05:48:51;;;;;;;24.88;10.50;;;;;;;-0.77;100.00;102540.22;5203738;28;20391;-68
2021/01/15 05:51:29;;;;;;;23.08;10.15;;;;;;;-0.76;100.00;102546.34;5204710;28;20498;-68
2021/01/15 05:54:01;;;;;;;25.73;9.57;;;;;;;-0.73;100.00;102547.09;5201234;28;20029;-67
2021/01/15 05:56:41;;;;;;;24.73;9.80;;;;;;;-0.74;100.00;102549.81;5195537;28;20045;-67
2021/01/15 05:59:14;;;;;;;19.85;8.77;;;;;;;-0.71;100.00;102552.31;5202684;28;20497;-67
2021/01/15 06:01:47;;;;;;;23.50;9.93;;;;;;;-0.72;100.00;102563.78;5204187;28;20185;-67
2021/01/15 06:04:32;;;;;;;25.88;10.27;;;;;;;-0.70;100.00;102565.47;5204189;28;20026;-68
2021/01/15 06:07:08;;;;;;;22.00;9.38;;;;;;;-0.68;100.00;102568.03;5203434;28;20025;-67
2021/01/15 06:09:41;;;;;;;24.55;10.52;;;;;;;-0.67;100.00;102567.13;5203662;28;20473;-67
2021/01/15 06:12:14;;;;;;;23.17;8.55;;;;;;;-0.68;100.00;102578.59;5203947;28;20033;-67
2021/01/15 06:14:49;;;;;;;23.20;9.45;;;;;;;-0.66;100.00;102577.59;5203577;28;20459;-67
2021/01/15 06:17:20;;;;;;;26.85;10.38;;;;;;;-0.64;100.00;102578.44;5203729;28;20397;-68
2021/01/15 06:19:53;;;;;;;27.58;10.48;;;;;;;-0.65;100.00;102581.13;5203285;28;20033;-67
2021/01/15 06:22:29;;;;;;;25.40;9.88;;;;;;;-0.61;100.00;102585.34;5199107;28;20030;-67
2021/01/15 06:25:07;;;;;;;22.20;9.52;;;;;;;-0.62;100.00;102591.53;5196222;28;20051;-68
2021/01/15 06:27:40;;;;;;;22.33;10.13;;;;;;;-0.62;100.00;102599.47;5197361;28;20040;-68
2021/01/15 06:30:13;;;;;;;21.77;8.93;;;;;;;-0.58;100.00;102609.84;5203305;28;20025;-67
2021/01/15 06:32:45;;;;;;;20.63;9.93;;;;;;;-0.63;100.00;102618.81;5203570;28;20258;-67
2021/01/15 06:35:25;;;;;;;24.70;9.27;;;;;;;-0.62;100.00;102613.50;5203418;28;20457;-68
2021/01/15 06:37:58;;;;;;;25.63;10.00;;;;;;;-0.64;100.00;102615.34;5202164;28;20362;-67
2021/01/15 06:40:30;;;;;;;24.10;9.90;;;;;;;-0.55;100.00;102616.81;5206800;28;20021;-67
2021/01/15 06:43:03;;;;;;;27.45;10.52;;;;;;;-0.54;100.00;102623.81;5202642;28;20446;-68
2021/01/15 06:45:40;;;;;;;23.00;9.90;;;;;;;-0.51;100.00;102621.03;5208380;28;20036;-68
2021/01/15 06:48:13;;;;;;;26.63;9.95;;;;;;;-0.50;100.00;102619.25;5209090;28;20035;-68
2021/01/15 06:50:46;;;;;;;25.33;10.70;;;;;;;-0.51;100.00;102623.69;5204737;28;20474;-68
2021/01/15 06:53:24;;;;;;;26.15;10.82;;;;;;;-0.52;100.00;102627.22;5200523;28;20060;-68
2021/01/15 06:55:56;;;;;;;23.30;9.32;;;;;;;-0.47;100.00;102635.00;5197481;28;20021;-68
2021/01/15 06:58:29;;;;;;;22.25;9.75;;;;;;;-0.44;100.00;102641.03;5200379;28;20549;-68
2021/01/15 07:01:17;;;;;;;25.00;10.38;;;;;;;-0.46;100.00;102648.13;5200573;28;20099;-68
2021/01/15 07:04:03;;;;;;;23.65;10.25;;;;;;;-0.53;100.00;102647.47;5204849;28;20049;-68
2021/01/15 07:06:35;;;;;;;21.70;9.45;;;;;;;-0.52;100.00;102654.47;5200671;28;20029;-67
2021/01/15 07:09:08;;;;;;;24.65;9.95;;;;;;;-0.44;100.00;102646.31;5200993;28;20021;-67
2021/01/15 07:11:42;;;;;;;22.35;9.50;;;;;;;-0.40;100.00;102649.69;5200121;28;20040;-68
2021/01/15 07:14:20;;;;;;;25.00;9.90;;;;;;;-0.42;100.00;102648.88;5200971;28;20700;-67
2021/01/15 07:16:53;;;;;;;23.73;10.10;;;;;;;-0.45;100.00;102649.88;5197003;28;20021;-67
2021/01/15 07:19:36;;;;;;;22.73;9.38;;;;;;;-0.46;100.00;102657.81;5201428;28;20018;-68
2021/01/15 07:22:10;;;;;;;22.83;9.75;;;;;;;-0.44;100.00;102670.03;5200846;28;20025;-68
2021/01/15 07:24:42;;;;;;;22.15;9.30;;;;;;;-0.40;100.00;102669.03;5200424;28;20032;-67
2021/01/15 07:27:14;;;;;;;22.35;10.02;;;;;;;-0.38;100.00;102672.47;5199467;28;20071;-68
2021/01/15 07:29:48;;;;;;;21.80;9.48;;;;;;;-0.36;100.00;102681.19;5201089;28;20032;-68
2021/01/15 07:32:28;;;;;;;25.20;10.50;;;;;;;-0.44;100.00;102693.78;5200692;28;20073;-67
2021/01/15 07:35:01;;;;;;;27.73;9.90;;;;;;;-0.42;100.00;102685.81;5200181;28;20254;-68
2021/01/15 07:37:32;;;;;;;22.63;9.65;;;;;;;-0.43;100.00;102698.13;5199727;28;20390;-68
2021/01/15 07:40:14;;;;;;;23.50;10.07;;;;;;;-0.44;100.00;102696.41;5190888;28;20477;-67
2021/01/15 07:42:46;;;;;;;24.42;10.95;;;;;;;-0.37;100.00;102699.69;5195186;28;20459;-67
2021/01/15 07:45:39;;;;;;;25.35;10.63;;;;;;;-0.35;100.00;102709.31;5199087;28;20056;-68
2021/01/15 07:48:10;;;;;;;26.33;10.35;;;;;;;-0.35;100.00;102719.84;5198667;28;20029;-67
2021/01/15 07:50:42;;;;;;;25.23;9.90;;;;;;;-0.39;100.00;102718.22;5198979;28;20203;-68
2021/01/15 07:53:13;;;;;;;22.30;10.20;;;;;;;-0.42;100.00;102720.09;5198565;28;20049;-68
2021/01/15 07:55:49;;;;;;;23.00;10.25;;;;;;;-0.38;100.00;102727.00;5209075;28;20072;-68
2021/01/15 07:58:21;;;;;;;26.80;10.85;;;;;;;-0.33;100.00;102730.34;5198744;28;20425;-68
2021/01/15 08:00:52;;;;;;;25.55;10.95;;;;;;;-0.34;100.00;102732.13;5198660;28;20108;-67
2021/01/15 08:03:23;;;;;;;26.05;9.68;;;;;;;-0.34;100.00;102734.75;5198593;28;20242;-67
2021/01/15 08:05:56;;;;;;;22.77;10.27;;;;;;;-0.28;100.00;102736.31;5199999;28;20500;-68
2021/01/15 08:08:27;;;;;;;26.95;10.85;;;;;;;-0.28;100.00;102747.72;5197785;28;20151;-67
2021/01/15 08:11:10;;;;;;;23.55;10.95;;;;;;;-0.27;100.00;102743.31;5198907;28;20029;-67
2021/01/15 08:13:41;;;;;;;24.95;10.25;;;;;;;-0.26;100.00;102745.03;5198217;28;20033;-67
2021/01/15 08:16:11;;;;;;;21.25;9.68;;;;;;;-0.27;100.00;102738.91;5199189;28;20104;-67
2021/01/15 08:18:43;;;;;;;22.52;10.45;;;;;;;-0.28;100.00;102745.09;5197927;28;20033;-68
2021/01/15 08:21:14;;;;;;;23.35;10.88;;;;;;;-0.29;100.00;102750.44;5198886;28;20484;-68
2021/01/15 08:23:44;;;;;;;24.35;11.55;;;;;;;-0.28;100.00;102747.72;5202141;28;20022;-68
2021/01/15 08:26:25;;;;;;;23.17;10.98;;;;;;;-0.24;100.00;102752.91;5201967;28;20033;-68
2021/01/15 08:28:55;;;;;;;31.80;11.40;;;;;;;-0.20;100.00;102755.41;5202430;28;20029;-67
2021/01/15 08:31:26;;;;;;;28.58;11.88;;;;;;;-0.20;100.00;102765.97;5202999;28;20355;-67
2021/01/15 08:34:08;;;;;;;26.65;11.00;;;;;;;-0.15;100.00;102761.41;5202266;28;20026;-68
2021/01/15 08:36:42;;;;;;;29.45;11.55;;;;;;;-0.09;100.00;102774.38;5202275;28;20482;-67
2021/01/15 08:39:13;;;;;;;31.97;12.37;;;;;;;-0.11;100.00;102778.81;5208069;28;20027;-68
2021/01/15 08:41:52;;;;;;;30.77;11.02;;;;;;;-0.13;100.00;102783.31;5201803;28;20033;-68
2021/01/15 08:44:23;;;;;;;28.45;12.25;;;;;;;-0.22;100.00;102780.97;5202246;28;20563;-67
2021/01/15 08:46:55;;;;;;;22.92;10.82;;;;;;;-0.13;100.00;102787.72;5200833;28;20026;-68
2021/01/15 08:49:25;;;;;;;30.60;11.48;;;;;;;-0.15;100.00;102790.41;5201785;28;20036;-67
2021/01/15 08:51:58;;;;;;;26.80;11.45;;;;;;;-0.10;100.00;102796.41;5201471;28;20029;-68
2021/01/15 08:54:31;;;;;;;32.30;12.55;;;;;;;-0.04;100.00;102798.84;5201312;28;20024;-68
2021/01/15 08:57:04;;;;;;;33.03;13.65;;;;;;;-0.11;100.00;102810.50;5202390;28;20044;-68
2021/01/15 08:59:36;;;;;;;27.80;11.25;;;;;;;0.00;100.00;102812.81;5201559;28;20022;-68
2021/01/15 09:02:06;;;;;;;26.90;11.63;;;;;;;0.03;100.00;102819.75;5201881;28;20087;-68
2021/01/15 09:04:39;;;;;;;30.05;11.85;;;;;;;0.03;100.00;102823.25;5201060;28;20033;-68
2021/01/15 09:07:11;;;;;;;23.65;10.82;;;;;;;0.02;100.00;102824.16;5202142;28;20284;-68
2021/01/15 09:09:42;;;;;;;27.70;11.27;;;;;;;0.14;100.00;102825.53;5216912;28;20025;-68
2021/01/15 09:12:12;;;;;;;27.33;10.93;;;;;;;0.11;100.00;102833.56;5201577;28;20021;-68
2021/01/15 09:14:48;;;;;;;26.70;10.60;;;;;;;0.14;100.00;102834.31;5201103;28;20565;-68
2021/01/15 09:17:25;;;;;;;26.45;11.15;;;;;;;0.18;100.00;102846.50;5198100;28;20375;-68
2021/01/15 09:19:55;;;;;;;25.50;11.43;;;;;;;0.11;100.00;102847.63;5201518;28;20034;-68
2021/01/15 09:22:28;;;;;;;25.85;11.23;;;;;;;0.22;100.00;102857.81;5200503;28;20033;-68
2021/01/15 09:24:58;;;;;;;28.30;11.38;;;;;;;0.27;100.00;102866.44;5201523;28;20099;-68
2021/01/15 09:27:30;;;;;;;25.73;11.30;;;;;;;0.26;100.00;102864.72;5199556;28;20037;-68
2021/01/15 09:30:00;;;;;;;25.08;11.40;;;;;;;0.29;100.00;102864.59;5201469;28;20673;-67
2021/01/15 09:32:31;;;;;;;21.42;10.43;;;;;;;0.44;100.00;102868.53;5200767;28;20029;-67
2021/01/15 09:35:01;;;;;;;23.92;11.20;;;;;;;0.44;100.00;102863.25;5201252;28;20029;-67
2021/01/15 09:37:32;;;;;;;25.45;11.25;;;;;;;0.51;100.00;102873.56;5200900;28;20367;-67
2021/01/15 09:40:04;;;;;;;25.55;11.48;;;;;;;0.52;100.00;102874.41;5209205;28;20068;-67
2021/01/15 09:42:34;;;;;;;25.33;10.65;;;;;;;0.58;100.00;102879.47;5200928;28;20378;-67
2021/01/15 09:45:06;;;;;;;21.95;10.32;;;;;;;0.62;100.00;102882.91;5201289;28;20033;-67
2021/01/15 09:47:42;;;;;;;24.77;10.88;;;;;;;0.68;100.00;102877.41;5200925;28;20107;-66
2021/01/15 09:50:13;;;;;;;27.05;11.30;;;;;;;0.70;100.00;102886.13;5200506;28;20037;-67
2021/01/15 09:52:47;;;;;;;30.67;11.98;;;;;;;0.68;100.00;102878.25;5200832;28;20065;-67
2021/01/15 09:55:18;;;;;;;22.73;10.80;;;;;;;0.76;100.00;102886.78;5199773;28;20049;-67
2021/01/15 09:57:48;;;;;;;29.77;11.48;;;;;;;0.83;100.00;102890.06;5200541;28;20026;-66
2021/01/15 10:00:19;;;;;;;23.05;11.05;;;;;;;0.84;100.00;102893.56;5200513;28;20025;-66
2021/01/15 10:02:49;;;;;;;27.20;11.45;;;;;;;0.87;100.00;102898.75;5200342;28;20422;-67
2021/01/15 10:05:21;;;;;;;23.75;11.00;;;;;;;0.90;100.00;102914.50;5199845;28;20025;-66
2021/01/15 10:07:52;;;;;;;25.95;11.30;;;;;;;0.93;100.00;102906.47;5200684;28;20485;-66
2021/01/15 10:10:22;;;;;;;27.67;12.13;;;;;;;0.92;100.00;102907.41;5199886;28;20013;-67
2021/01/15 10:12:53;;;;;;;25.60;11.63;;;;;;;0.93;100.00;102909.97;5200446;28;20195;-66
2021/01/15 10:15:23;;;;;;;30.40;11.35;;;;;;;0.88;100.00;102913.69;5199443;28;20061;-67
2021/01/15 10:17:53;;;;;;;28.58;11.45;;;;;;;0.93;100.00;102925.81;5192646;28;20033;-67
2021/01/15 10:20:25;;;;;;;27.77;12.50;;;;;;;1.01;100.00;102922.94;5199636;28;20032;-67
2021/01/15 10:22:56;;;;;;;26.80;12.07;;;;;;;0.91;100.00;102927.69;5199818;28;20471;-67
2021/01/15 10:25:26;;;;;;;29.90;12.60;;;;;;;0.94;100.00;102924.03;5198709;28;20029;-67
2021/01/15 10:27:56;;;;;;;28.48;11.98;;;;;;;0.87;100.00;102926.06;5191975;28;20513;-66
2021/01/15 10:30:27;;;;;;;27.92;13.02;;;;;;;0.92;100.00;102939.09;5199508;28;20029;-67
2021/01/15 10:32:58;;;;;;;27.98;10.80;;;;;;;1.07;100.00;102933.28;5200292;28;20025;-67
2021/01/15 10:35:36;;;;;;;28.65;11.60;;;;;;;1.07;100.00;102941.22;5200142;28;20049;-67
2021/01/15 10:38:06;;;;;;;26.98;11.85;;;;;;;0.96;100.00;102938.94;5200355;28;20116;-67
2021/01/15 10:40:37;;;;;;;24.38;10.70;;;;;;;0.95;100.00;102929.28;5198668;28;20506;-67
2021/01/15 10:43:07;;;;;;;31.50;12.10;;;;;;;1.04;100.00;102942.16;5200621;28;20354;-67
2021/01/15 10:45:38;;;;;;;32.42;12.23;;;;;;;1.12;100.00;102944.56;5195566;28;20030;-67
2021/01/15 10:48:09;;;;;;;27.75;12.43;;;;;;;1.08;100.00;102944.72;5200277;28;20025;-67
2021/01/15 10:50:40;;;;;;;28.10;13.10;;;;;;;1.00;100.00;102952.91;5200388;28;20041;-66
2021/01/15 10:53:10;;;;;;;28.70;12.48;;;;;;;1.13;100.00;102948.94;5201043;28;20028;-67
2021/01/15 10:55:41;;;;;;;30.33;12.68;;;;;;;1.19;100.00;102951.34;5206305;28;20029;-67
2021/01/15 10:58:11;;;;;;;46.67;11.93;;;;;;;1.17;100.00;102949.69;5200319;28;20021;-67
2021/01/15 11:00:42;;;;;;;25.33;12.00;;;;;;;1.25;100.00;102958.19;5199657;28;20037;-67
2021/01/15 11:03:13;;;;;;;30.13;12.20;;;;;;;1.12;100.00;102952.50;5200226;28;20026;-67
2021/01/15 11:05:43;;;;;;;27.88;11.57;;;;;;;1.04;100.00;102954.53;5200706;28;20036;-67
2021/01/15 11:08:14;;;;;;;28.48;12.43;;;;;;;1.03;100.00;102961.59;5200033;28;20251;-67
2021/01/15 11:10:45;;;;;;;25.83;11.73;;;;;;;1.10;100.00;102964.03;5197789;28;20025;-67
2021/01/15 11:13:16;;;;;;;23.88;11.10;;;;;;;1.10;100.00;102959.59;5199136;28;20025;-67
2021/01/15 11:15:46;;;;;;;28.95;13.40;;;;;;;1.05;100.00;102961.53;5198986;28;20044;-67
2021/01/15 11:18:16;;;;;;;27.27;12.18;;;;;;;1.04;100.00;102957.16;5199029;28;20433;-68
2021/01/15 11:20:47;;;;;;;29.15;13.48;;;;;;;1.12;100.00;102962.22;5198291;28;20071;-67
2021/01/15 11:23:17;;;;;;;27.55;11.70;;;;;;;1.04;100.00;102958.03;5215456;28;20021;-67
2021/01/15 11:25:48;;;;;;;26.80;12.35;;;;;;;1.11;100.00;102960.50;5199958;28;20378;-67
2021/01/15 11:28:19;;;;;;;25.85;12.27;;;;;;;1.16;100.00;102962.03;5194340;28;20041;-67
2021/01/15 11:30:49;;;;;;;27.15;13.30;;;;;;;1.19;100.00;102954.00;5199361;28;20036;-67
2021/01/15 11:33:20;;;;;;;27.98;12.15;;;;;;;1.29;100.00;102960.69;5200046;28;20053;-67